createdAt,value
2023-02-20T00:00:40.266Z,24.40
2023-02-20T00:03:10.831Z,24.50
2023-02-20T00:05:41.101Z,24.50
2023-02-20T00:08:11.530Z,24.50
2023-02-20T00:10:41.837Z,24.50
2023-02-20T00:13:12.137Z,24.50
2023-02-20T00:15:42.427Z,24.50
2023-02-20T00:18:13.237Z,24.50
2023-02-20T00:20:43.591Z,24.50
2023-02-20T00:23:15.371Z,24.60
2023-02-20T00:25:45.686Z,24.60
2023-02-20T00:28:16.022Z,24.50
2023-02-20T00:30:46.271Z,24.60
2023-02-20T00:33:16.698Z,24.70
2023-02-20T00:35:46.944Z,24.70
2023-02-20T00:38:21.527Z,24.70
2023-02-20T00:40:51.745Z,24.70
2023-02-20T00:43:21.992Z,24.80
2023-02-20T00:45:52.259Z,24.80
2023-02-20T00:48:22.490Z,24.80
2023-02-20T00:50:52.675Z,24.80
2023-02-20T00:53:22.851Z,24.80
2023-02-20T00:55:53.043Z,24.80
2023-02-20T00:58:23.858Z,24.80
2023-02-20T01:00:54.210Z,24.80
2023-02-20T01:03:24.439Z,24.90
2023-02-20T01:05:54.708Z,24.80
2023-02-20T01:08:31.008Z,24.90
2023-02-20T01:11:01.243Z,24.90
2023-02-20T01:13:31.642Z,24.90
2023-02-20T01:16:02.056Z,24.90
2023-02-20T01:18:33.207Z,24.90
2023-02-20T01:21:03.410Z,24.90
2023-02-20T01:23:33.634Z,24.90
2023-02-20T01:26:03.923Z,25.00
2023-02-20T01:28:34.166Z,25.00
2023-02-20T01:31:04.446Z,25.00
2023-02-20T01:33:34.707Z,25.00
2023-02-20T01:36:06.845Z,25.00
2023-02-20T01:38:37.029Z,25.00
2023-02-20T01:41:07.300Z,25.10
2023-02-20T01:43:37.949Z,25.00
2023-02-20T01:46:29.350Z,25.00
2023-02-20T01:49:09.050Z,25.10
2023-02-20T01:51:45.004Z,25.10
2023-02-20T01:54:19.102Z,25.10
2023-02-20T01:56:51.330Z,25.10
2023-02-20T01:59:24.188Z,25.10
2023-02-20T02:01:54.928Z,25.20
2023-02-20T02:04:25.627Z,25.10
2023-02-20T02:06:56.893Z,25.20
2023-02-20T02:09:41.866Z,25.20
2023-02-20T02:12:12.174Z,25.20
2023-02-20T02:14:42.466Z,25.20
2023-02-20T02:17:53.488Z,25.20
2023-02-20T02:21:04.700Z,25.30
2023-02-20T02:23:59.140Z,25.30
2023-02-20T02:26:37.908Z,25.30
2023-02-20T02:29:46.090Z,25.30
2023-02-20T02:32:42.850Z,25.30
2023-02-20T02:35:22.065Z,25.30
2023-02-20T02:38:22.484Z,25.40
2023-02-20T02:40:56.480Z,25.40
2023-02-20T02:43:41.844Z,25.40
2023-02-20T02:46:36.950Z,25.40
2023-02-20T02:49:34.372Z,25.50
2023-02-20T02:52:06.785Z,25.50
2023-02-20T02:54:37.994Z,25.50
2023-02-20T02:57:30.032Z,25.50
2023-02-20T03:00:20.398Z,25.60
2023-02-20T03:03:19.981Z,25.60
2023-02-20T03:05:53.193Z,25.60
2023-02-20T03:08:44.949Z,25.60
2023-02-20T03:11:21.973Z,25.60
2023-02-20T03:14:17.033Z,25.60
2023-02-20T03:17:10.467Z,25.70
2023-02-20T03:19:49.361Z,25.70
2023-02-20T03:22:27.774Z,25.80
2023-02-20T03:25:03.001Z,25.80
2023-02-20T03:27:40.854Z,25.80
2023-02-20T03:30:21.834Z,25.80
2023-02-20T03:33:15.043Z,25.80
2023-02-20T03:36:06.027Z,25.80
2023-02-20T03:38:58.196Z,25.90
2023-02-20T03:41:49.709Z,25.90
2023-02-20T03:44:21.155Z,25.90
2023-02-20T03:46:54.729Z,25.90
2023-02-20T03:49:29.314Z,25.90
2023-02-20T03:51:59.629Z,25.90
2023-02-20T03:54:31.880Z,26.00
2023-02-20T03:57:29.140Z,26.00
2023-02-20T04:00:04.343Z,26.00
2023-02-20T04:02:40.082Z,26.10
2023-02-20T04:05:24.444Z,26.10
2023-02-20T04:08:26.721Z,26.10
2023-02-20T04:11:33.182Z,26.10
2023-02-20T04:14:05.910Z,26.10
2023-02-20T04:16:45.177Z,26.10
2023-02-20T04:19:15.700Z,26.20
2023-02-20T04:21:52.242Z,26.20
2023-02-20T04:24:37.403Z,26.20
2023-02-20T04:27:07.820Z,26.30
2023-02-20T04:29:38.142Z,26.30
2023-02-20T04:32:08.730Z,26.30
2023-02-20T04:34:39.060Z,26.30
2023-02-20T04:37:13.172Z,26.30
2023-02-20T04:39:43.900Z,26.40
2023-02-20T04:42:14.765Z,26.30
2023-02-20T04:44:44.976Z,26.40
2023-02-20T04:47:18.524Z,26.40
2023-02-20T04:49:48.793Z,26.40
2023-02-20T04:52:19.128Z,26.40
2023-02-20T04:54:50.295Z,26.50
2023-02-20T04:57:21.882Z,26.50
2023-02-20T04:59:52.287Z,26.60
2023-02-20T05:02:22.998Z,26.50
2023-02-20T05:04:53.775Z,26.60
2023-02-20T05:07:24.902Z,26.60
2023-02-20T05:09:55.121Z,26.60
2023-02-20T05:12:25.669Z,26.60
2023-02-20T05:14:56.134Z,26.70
2023-02-20T05:17:26.726Z,26.70
2023-02-20T05:19:57.212Z,26.70
2023-02-20T05:22:27.643Z,26.70
2023-02-20T05:24:58.547Z,26.70
2023-02-20T05:27:30.371Z,26.80
2023-02-20T05:30:02.425Z,26.80
2023-02-20T05:32:33.514Z,26.80
2023-02-20T05:35:04.086Z,26.80
2023-02-20T05:37:34.346Z,26.70
2023-02-20T05:40:05.097Z,26.50
2023-02-20T05:42:37.306Z,26.30
2023-02-20T05:45:08.280Z,26.10
2023-02-20T05:47:40.575Z,26.00
2023-02-20T05:50:11.094Z,25.80
2023-02-20T05:52:41.525Z,25.70
2023-02-20T05:55:12.170Z,25.60
2023-02-20T05:57:42.348Z,25.50
2023-02-20T06:00:13.758Z,25.40
2023-02-20T06:02:44.026Z,25.30
2023-02-20T06:05:14.331Z,25.20
2023-02-20T06:07:53.480Z,25.20
2023-02-20T06:10:23.966Z,25.10
2023-02-20T06:12:54.133Z,25.00
2023-02-20T06:15:24.301Z,24.90
2023-02-20T06:17:54.586Z,24.90
2023-02-20T06:20:24.779Z,24.80
2023-02-20T06:22:55.003Z,24.80
2023-02-20T06:25:25.285Z,24.70
2023-02-20T06:27:55.522Z,24.70
2023-02-20T06:30:26.000Z,24.90
2023-02-20T06:32:56.520Z,25.10
2023-02-20T06:35:26.916Z,25.20
2023-02-20T06:37:57.770Z,25.50
2023-02-20T06:40:28.194Z,25.60
2023-02-20T06:42:58.585Z,25.70
2023-02-20T06:45:28.997Z,25.80
2023-02-20T06:47:59.255Z,25.80
2023-02-20T06:50:29.657Z,25.90
2023-02-20T06:53:00.017Z,26.00
2023-02-20T06:55:30.771Z,26.00
2023-02-20T06:58:01.111Z,26.10
2023-02-20T07:00:32.315Z,26.10
2023-02-20T07:03:02.600Z,26.20
2023-02-20T07:05:32.962Z,26.20
2023-02-20T07:08:03.193Z,26.30
2023-02-20T07:10:33.769Z,26.30
2023-02-20T07:13:07.761Z,26.30
2023-02-20T07:15:38.203Z,26.40
2023-02-20T07:18:08.432Z,26.40
2023-02-20T07:20:38.640Z,26.40
2023-02-20T07:23:08.860Z,26.40
2023-02-20T07:25:39.233Z,26.50
2023-02-20T07:28:10.304Z,26.60
2023-02-20T07:30:40.972Z,26.50
2023-02-20T07:33:11.301Z,26.60
2023-02-20T07:35:41.806Z,26.60
2023-02-20T07:38:12.293Z,26.60
2023-02-20T07:40:42.644Z,26.70
2023-02-20T07:43:12.949Z,26.70
2023-02-20T07:45:44.266Z,26.70
2023-02-20T07:48:15.484Z,26.70
2023-02-20T07:50:47.173Z,26.70
2023-02-20T07:53:20.176Z,26.70
2023-02-20T07:55:52.662Z,26.70
2023-02-20T07:58:23.912Z,26.80
2023-02-20T08:00:56.591Z,26.80
2023-02-20T08:03:28.532Z,26.80
2023-02-20T08:06:01.036Z,26.80
2023-02-20T08:08:33.102Z,26.80
2023-02-20T08:11:09.721Z,26.80
2023-02-20T08:13:42.840Z,26.80
2023-02-20T08:16:14.038Z,26.80
2023-02-20T08:18:44.532Z,26.90
2023-02-20T08:21:14.903Z,26.90
2023-02-20T08:23:45.319Z,26.90
2023-02-20T08:26:16.089Z,26.90
2023-02-20T08:28:46.396Z,26.90
2023-02-20T08:31:30.874Z,26.80
2023-02-20T08:34:02.471Z,26.80
2023-02-20T08:36:33.198Z,26.70
2023-02-20T08:39:04.778Z,26.70
2023-02-20T08:41:35.325Z,26.70
2023-02-20T08:44:05.821Z,26.70
2023-02-20T08:46:36.472Z,26.70
2023-02-20T08:49:07.128Z,26.60
2023-02-20T08:51:37.932Z,26.60
2023-02-20T08:54:08.638Z,26.50
2023-02-20T08:56:39.138Z,26.50
2023-02-20T08:59:09.499Z,26.40
2023-02-20T09:01:43.266Z,26.40
2023-02-20T09:04:14.228Z,26.30
2023-02-20T09:06:44.724Z,26.20
2023-02-20T09:09:15.550Z,26.20
2023-02-20T09:11:46.678Z,26.10
2023-02-20T09:14:17.399Z,26.10
2023-02-20T09:16:47.909Z,26.00
2023-02-20T09:19:19.362Z,26.00
2023-02-20T09:21:50.950Z,25.90
2023-02-20T09:24:21.360Z,25.80
2023-02-20T09:26:51.881Z,25.80
2023-02-20T09:29:22.185Z,25.80
2023-02-20T09:31:52.771Z,25.80
2023-02-20T09:34:23.932Z,25.70
2023-02-20T09:36:55.555Z,25.70
2023-02-20T09:39:25.972Z,25.70
2023-02-20T09:42:32.392Z,25.70
2023-02-20T09:45:23.279Z,25.80
2023-02-20T09:48:12.261Z,25.80
2023-02-20T09:51:01.820Z,25.80
2023-02-20T09:53:47.965Z,25.90
2023-02-20T09:56:27.827Z,25.90
2023-02-20T09:59:16.548Z,25.90
2023-02-20T10:02:24.417Z,26.00
2023-02-20T10:05:01.713Z,26.00
2023-02-20T10:07:38.892Z,26.00
2023-02-20T10:10:30.635Z,26.10
2023-02-20T10:13:11.493Z,26.10
2023-02-20T10:15:57.280Z,26.10
2023-02-20T10:19:01.538Z,26.10
2023-02-20T10:22:08.277Z,26.10
2023-02-20T10:24:42.098Z,26.10
2023-02-20T10:27:44.583Z,26.10
2023-02-20T10:30:42.522Z,26.20
2023-02-20T10:33:25.845Z,26.20
2023-02-20T10:36:18.820Z,26.20
2023-02-20T10:39:24.919Z,26.20
2023-02-20T10:42:18.830Z,26.20
2023-02-20T10:45:00.755Z,26.20
2023-02-20T10:47:44.611Z,26.20
2023-02-20T10:50:51.605Z,26.30
2023-02-20T10:53:30.772Z,26.30
2023-02-20T10:56:10.213Z,26.20
2023-02-20T10:58:59.989Z,26.30
2023-02-20T11:01:30.897Z,26.30
2023-02-20T11:04:16.510Z,26.30
2023-02-20T11:06:48.759Z,26.30
2023-02-20T11:09:19.241Z,26.30
2023-02-20T11:11:50.158Z,26.30
2023-02-20T11:14:34.102Z,26.30
2023-02-20T11:17:18.541Z,26.30
2023-02-20T11:19:52.532Z,26.30
2023-02-20T11:22:40.960Z,26.40
2023-02-20T11:25:26.454Z,26.40
2023-02-20T11:28:09.752Z,26.40
2023-02-20T11:30:44.680Z,26.40
2023-02-20T11:33:18.105Z,26.30
2023-02-20T11:35:58.665Z,26.40
2023-02-20T11:38:38.101Z,26.40
2023-02-20T11:41:30.866Z,26.40
2023-02-20T11:44:16.151Z,26.40
2023-02-20T11:46:48.886Z,26.40
2023-02-20T11:49:33.179Z,26.30
2023-02-20T11:52:18.388Z,26.40
2023-02-20T11:54:49.208Z,26.40
2023-02-20T11:57:27.103Z,26.40
2023-02-20T12:00:16.981Z,26.40
2023-02-20T12:02:55.313Z,26.40
2023-02-20T12:05:42.039Z,26.40
2023-02-20T12:08:33.198Z,26.40
2023-02-20T12:11:12.699Z,26.40
2023-02-20T12:13:45.862Z,26.40
2023-02-20T12:16:34.655Z,26.40
2023-02-20T12:19:23.338Z,26.40
2023-02-20T12:22:02.331Z,26.40
2023-02-20T12:25:16.678Z,26.40
2023-02-20T12:28:06.835Z,26.40
2023-02-20T12:31:00.972Z,26.40
2023-02-20T12:33:43.051Z,26.40
2023-02-20T12:36:28.446Z,26.40
2023-02-20T12:39:18.772Z,26.40
2023-02-20T12:42:17.598Z,26.40
2023-02-20T12:45:00.118Z,26.30
2023-02-20T12:47:56.447Z,26.40
2023-02-20T12:50:48.624Z,26.40
2023-02-20T12:53:37.098Z,26.40
2023-02-20T12:56:42.689Z,26.40
2023-02-20T12:59:31.341Z,26.40
2023-02-20T13:02:41.293Z,26.30
2023-02-20T13:05:17.333Z,26.40
2023-02-20T13:07:55.910Z,26.40
2023-02-20T13:10:34.427Z,26.30
2023-02-20T13:13:05.058Z,26.40
2023-02-20T13:15:53.802Z,26.40
2023-02-20T13:18:50.858Z,26.30
2023-02-20T13:21:26.004Z,26.40
2023-02-20T13:24:20.227Z,26.30
2023-02-20T13:26:55.453Z,26.40
2023-02-20T13:29:30.963Z,26.40
2023-02-20T13:32:04.131Z,26.30
2023-02-20T13:34:37.915Z,26.30
2023-02-20T13:37:29.624Z,26.40
2023-02-20T13:40:00.218Z,26.30
2023-02-20T13:42:35.396Z,26.30
2023-02-20T13:45:25.757Z,26.30
2023-02-20T13:48:41.362Z,26.30
2023-02-20T13:51:21.592Z,26.30
2023-02-20T13:54:14.531Z,26.30
2023-02-20T13:57:13.603Z,26.30
2023-02-20T13:59:43.940Z,26.30
2023-02-20T14:02:22.416Z,26.30
2023-02-20T14:04:57.905Z,26.30
2023-02-20T14:07:39.929Z,26.30
2023-02-20T14:10:34.760Z,26.30
2023-02-20T14:13:34.138Z,26.30
2023-02-20T14:16:28.253Z,26.30
2023-02-20T14:19:15.692Z,26.30
2023-02-20T14:21:45.975Z,26.30
2023-02-20T14:24:31.017Z,26.30
2023-02-20T14:27:02.315Z,26.30
2023-02-20T14:29:38.413Z,26.20
2023-02-20T14:32:08.871Z,26.30
2023-02-20T14:34:51.632Z,26.30
2023-02-20T14:37:46.492Z,26.30
2023-02-20T14:40:35.358Z,26.30
2023-02-20T14:43:12.065Z,26.30
2023-02-20T14:45:42.452Z,26.30
2023-02-20T14:48:29.639Z,26.20
2023-02-20T14:51:27.511Z,26.30
2023-02-20T14:54:04.555Z,26.20
2023-02-20T14:56:34.956Z,26.30
2023-02-20T14:59:30.876Z,26.20
2023-02-20T15:02:33.341Z,26.30
2023-02-20T15:05:09.240Z,26.20
2023-02-20T15:07:42.358Z,26.20
2023-02-20T15:10:38.436Z,26.20
2023-02-20T15:13:17.808Z,26.20
2023-02-20T15:15:51.283Z,26.20
2023-02-20T15:18:45.315Z,26.20
2023-02-20T15:21:17.797Z,26.20
2023-02-20T15:23:49.324Z,26.20
2023-02-20T15:26:37.726Z,26.20
2023-02-20T15:29:27.795Z,26.20
2023-02-20T15:32:08.841Z,26.20
2023-02-20T15:34:40.823Z,26.20
2023-02-20T15:37:27.066Z,26.20
2023-02-20T15:40:22.964Z,26.20
2023-02-20T15:42:58.449Z,26.20
2023-02-20T15:45:30.974Z,26.20
2023-02-20T15:48:01.781Z,26.20
2023-02-20T15:50:32.293Z,26.20
2023-02-20T15:53:04.770Z,26.20
2023-02-20T15:55:37.865Z,26.20
2023-02-20T15:58:24.550Z,26.20
2023-02-20T16:00:57.902Z,26.20
2023-02-20T16:03:33.968Z,26.20
2023-02-20T16:06:09.343Z,26.10
2023-02-20T16:08:39.646Z,26.10
2023-02-20T16:11:09.968Z,26.10
2023-02-20T16:13:44.941Z,26.10
2023-02-20T16:16:36.033Z,26.10
2023-02-20T16:19:11.915Z,26.20
2023-02-20T16:21:53.096Z,26.10
2023-02-20T16:24:28.417Z,26.10
2023-02-20T16:26:58.636Z,26.10
2023-02-20T16:29:36.169Z,26.10
2023-02-20T16:32:06.509Z,26.10
2023-02-20T16:34:38.420Z,26.10
2023-02-20T16:37:11.451Z,26.10
2023-02-20T16:39:42.027Z,26.10
2023-02-20T16:42:35.376Z,26.10
2023-02-20T16:45:09.660Z,26.10
2023-02-20T16:47:39.872Z,26.10
2023-02-20T16:50:13.989Z,26.10
2023-02-20T16:52:45.229Z,26.10
2023-02-20T16:55:39.052Z,26.10
2023-02-20T16:58:09.326Z,26.10
2023-02-20T17:00:54.992Z,26.10
2023-02-20T17:03:29.339Z,26.10
2023-02-20T17:06:02.255Z,26.10
2023-02-20T17:08:32.637Z,26.10
2023-02-20T17:11:02.896Z,26.10
2023-02-20T17:13:33.057Z,26.10
2023-02-20T17:16:03.455Z,26.10
2023-02-20T17:18:33.742Z,26.10
2023-02-20T17:21:03.968Z,26.10
2023-02-20T17:23:34.266Z,26.10
2023-02-20T17:26:04.861Z,26.10
2023-02-20T17:28:35.134Z,26.10
2023-02-20T17:31:05.917Z,26.10
2023-02-20T17:33:36.883Z,26.10
2023-02-20T17:36:07.513Z,26.10
2023-02-20T17:38:38.160Z,26.10
2023-02-20T17:41:08.579Z,26.10
2023-02-20T17:43:40.098Z,26.10
2023-02-20T17:46:11.105Z,26.10
2023-02-20T17:48:43.954Z,26.00
2023-02-20T17:51:22.834Z,26.00
2023-02-20T17:53:53.046Z,26.10
2023-02-20T17:56:24.351Z,26.00
2023-02-20T17:58:54.853Z,26.00
2023-02-20T18:01:29.227Z,26.00
2023-02-20T18:03:59.730Z,26.00
2023-02-20T18:06:30.605Z,26.00
2023-02-20T18:09:01.145Z,26.00
2023-02-20T18:11:32.205Z,26.00
2023-02-20T18:14:02.581Z,26.00
2023-02-20T18:16:33.103Z,26.00
2023-02-20T18:19:04.128Z,26.00
2023-02-20T18:21:34.897Z,26.00
2023-02-20T18:24:06.492Z,26.00
2023-02-20T18:26:37.672Z,26.00
2023-02-20T18:29:08.257Z,26.00
2023-02-20T18:31:38.596Z,26.00
2023-02-20T18:34:08.997Z,25.90
2023-02-20T18:36:39.657Z,26.00
2023-02-20T18:39:11.526Z,26.00
2023-02-20T18:41:42.078Z,25.90
2023-02-20T18:44:12.340Z,25.90
2023-02-20T18:46:42.782Z,25.90
2023-02-20T18:49:13.023Z,25.90
2023-02-20T18:51:45.658Z,25.90
2023-02-20T18:54:21.814Z,25.90
2023-02-20T18:56:53.356Z,25.90
2023-02-20T18:59:24.608Z,25.90
2023-02-20T19:01:58.258Z,25.90
2023-02-20T19:04:28.677Z,25.90
2023-02-20T19:07:01.221Z,25.90
2023-02-20T19:09:35.863Z,25.90
2023-02-20T19:12:08.899Z,25.90
2023-02-20T19:14:39.610Z,25.90
2023-02-20T19:17:09.948Z,25.90
2023-02-20T19:19:40.254Z,25.90
2023-02-20T19:22:10.725Z,25.90
2023-02-20T19:24:41.873Z,25.90
2023-02-20T19:27:13.675Z,25.90
2023-02-20T19:29:43.891Z,25.90
2023-02-20T19:32:14.286Z,25.90
2023-02-20T19:34:44.606Z,25.90
2023-02-20T19:37:15.199Z,25.90
2023-02-20T19:39:45.486Z,25.90
2023-02-20T19:42:18.572Z,25.80
2023-02-20T19:44:48.789Z,25.90
2023-02-20T19:47:20.119Z,25.80
2023-02-20T19:49:50.721Z,25.80
2023-02-20T19:52:20.964Z,25.80
2023-02-20T19:54:51.254Z,25.80
2023-02-20T19:57:21.473Z,25.80
2023-02-20T19:59:52.702Z,25.80
2023-02-20T20:02:25.597Z,25.80
2023-02-20T20:04:56.017Z,25.80
2023-02-20T20:07:26.295Z,25.80
2023-02-20T20:09:57.081Z,25.80
2023-02-20T20:12:45.435Z,25.80
2023-02-20T20:15:16.662Z,25.80
2023-02-20T20:17:51.990Z,25.80
2023-02-20T20:20:23.024Z,25.80
2023-02-20T20:22:55.325Z,25.80
2023-02-20T20:25:27.018Z,25.80
2023-02-20T20:28:02.626Z,25.80
2023-02-20T20:30:34.528Z,25.80
2023-02-20T20:33:04.944Z,25.80
2023-02-20T20:35:36.122Z,25.70
2023-02-20T20:38:06.623Z,25.70
2023-02-20T20:40:36.921Z,25.70
2023-02-20T20:43:09.083Z,25.70
2023-02-20T20:45:39.333Z,25.70
2023-02-20T20:48:09.751Z,25.70
2023-02-20T20:50:40.692Z,25.70
2023-02-20T20:53:11.228Z,25.70
2023-02-20T20:55:41.444Z,25.70
2023-02-20T20:58:11.764Z,25.70
2023-02-20T21:00:42.265Z,25.70
2023-02-20T21:03:12.782Z,25.70
2023-02-20T21:05:43.103Z,25.70
2023-02-20T21:08:13.779Z,25.70
2023-02-20T21:10:44.209Z,25.70
2023-02-20T21:13:14.638Z,25.70
2023-02-20T21:15:44.957Z,25.70
2023-02-20T21:18:15.943Z,25.70
2023-02-20T21:20:46.438Z,25.70
2023-02-20T21:23:16.747Z,25.70
2023-02-20T21:25:47.179Z,25.60
2023-02-20T21:28:17.545Z,25.60
2023-02-20T21:30:49.522Z,25.70
2023-02-20T21:33:19.792Z,25.70
2023-02-20T21:35:50.427Z,25.70
2023-02-20T21:38:20.706Z,25.70
2023-02-20T21:40:51.136Z,25.70
2023-02-20T21:43:39.218Z,25.70
2023-02-20T21:46:12.324Z,25.60
2023-02-20T21:48:42.585Z,25.60
2023-02-20T21:51:13.250Z,25.60
2023-02-20T21:53:43.640Z,25.60
2023-02-20T21:56:13.888Z,25.60
2023-02-20T21:59:03.450Z,25.70
2023-02-20T22:01:36.626Z,25.60
2023-02-20T22:04:08.305Z,25.60
2023-02-20T22:06:38.848Z,25.70
2023-02-20T22:09:28.823Z,25.70
2023-02-20T22:12:17.761Z,25.70
2023-02-20T22:15:06.372Z,25.60
2023-02-20T22:17:56.426Z,25.60
2023-02-20T22:20:44.394Z,25.60
2023-02-20T22:23:32.700Z,25.60
2023-02-20T22:26:21.221Z,25.60
2023-02-20T22:29:09.166Z,25.60
2023-02-20T22:31:57.605Z,25.70
2023-02-20T22:34:46.047Z,25.70
2023-02-20T22:37:34.276Z,25.70
2023-02-20T22:40:22.201Z,25.70
2023-02-20T22:43:10.161Z,25.70
2023-02-20T22:45:59.287Z,25.80
2023-02-20T22:48:47.393Z,25.80
2023-02-20T22:51:35.479Z,25.80
2023-02-20T22:54:23.870Z,25.80
2023-02-20T22:57:12.109Z,25.80
2023-02-20T23:00:00.836Z,25.80
2023-02-20T23:02:49.538Z,25.80
2023-02-20T23:05:37.781Z,25.80
2023-02-20T23:08:29.863Z,25.80
2023-02-20T23:11:17.917Z,25.80
2023-02-20T23:14:07.750Z,25.80
2023-02-20T23:16:55.884Z,25.90
2023-02-20T23:19:43.854Z,25.80
2023-02-20T23:22:32.098Z,25.90
2023-02-20T23:25:20.497Z,25.90
2023-02-20T23:28:10.324Z,25.80
2023-02-20T23:30:58.438Z,25.90
2023-02-20T23:33:46.456Z,25.90
2023-02-20T23:36:34.361Z,25.90
2023-02-20T23:39:22.832Z,25.90
2023-02-20T23:42:10.992Z,25.90
2023-02-20T23:44:59.377Z,25.90
2023-02-20T23:47:47.346Z,26.00
2023-02-20T23:50:36.277Z,25.90
2023-02-20T23:53:24.344Z,26.00
2023-02-20T23:56:12.621Z,26.00
2023-02-20T23:59:00.611Z,26.00
